sensor_id;sensor_type;location;lat;lon;timestamp;P1;durP1;ratioP1;P2;durP2;ratioP2
3267;SDS011;1646;52.450;13.326;2022-08-11T00:01:00;5.40;;;2.13;;
3267;SDS011;1646;52.450;13.326;2022-08-11T00:06:03;4.43;;;2.10;;
3267;SDS011;1646;52.450;13.326;2022-08-11T00:11:02;3.83;;;2.00;;
3267;SDS011;1646;52.450;13.326;2022-08-11T00:16:10;4.53;;;1.90;;
3267;SDS011;1646;52.450;13.326;2022-08-11T00:21:10;4.20;;;1.70;;
3267;SDS011;1646;52.450;13.326;2022-08-11T00:26:09;3.10;;;1.90;;
3267;SDS011;1646;52.450;13.326;2022-08-11T00:31:19;2.73;;;1.87;;
3267;SDS011;1646;52.450;13.326;2022-08-11T00:36:22;7.50;;;2.30;;
3267;SDS011;1646;52.450;13.326;2022-08-11T00:41:30;3.43;;;2.00;;
3267;SDS011;1646;52.450;13.326;2022-08-11T00:46:34;2.80;;;1.70;;
3267;SDS011;1646;52.450;13.326;2022-08-11T00:51:46;4.63;;;2.10;;
3267;SDS011;1646;52.450;13.326;2022-08-11T01:02:43;4.83;;;2.20;;
3267;SDS011;1646;52.450;13.326;2022-08-11T01:08:15;3.40;;;2.20;;
3267;SDS011;1646;52.450;13.326;2022-08-11T01:19:43;2.63;;;2.30;;
3267;SDS011;1646;52.450;13.326;2022-08-11T01:31:19;2.37;;;2.17;;
3267;SDS011;1646;52.450;13.326;2022-08-11T01:48:16;2.87;;;1.90;;
3267;SDS011;1646;52.450;13.326;2022-08-11T01:53:25;2.03;;;1.90;;
3267;SDS011;1646;52.450;13.326;2022-08-11T01:58:34;2.50;;;1.80;;
3267;SDS011;1646;52.450;13.326;2022-08-11T02:03:41;2.30;;;1.90;;
3267;SDS011;1646;52.450;13.326;2022-08-11T02:08:48;3.30;;;1.90;;
3267;SDS011;1646;52.450;13.326;2022-08-11T02:13:57;9.40;;;2.80;;
3267;SDS011;1646;52.450;13.326;2022-08-11T02:19:00;3.60;;;2.60;;
3267;SDS011;1646;52.450;13.326;2022-08-11T02:24:26;2.10;;;1.90;;
3267;SDS011;1646;52.450;13.326;2022-08-11T02:29:31;6.10;;;2.37;;
3267;SDS011;1646;52.450;13.326;2022-08-11T02:34:41;2.90;;;2.33;;
3267;SDS011;1646;52.450;13.326;2022-08-11T02:40:01;6.07;;;2.40;;
3267;SDS011;1646;52.450;13.326;2022-08-11T02:45:28;4.60;;;2.73;;
3267;SDS011;1646;52.450;13.326;2022-08-11T02:50:50;2.73;;;2.53;;
3267;SDS011;1646;52.450;13.326;2022-08-11T02:55:57;7.87;;;2.83;;
3267;SDS011;1646;52.450;13.326;2022-08-11T03:01:06;5.07;;;2.40;;
3267;SDS011;1646;52.450;13.326;2022-08-11T03:06:16;4.80;;;2.70;;
3267;SDS011;1646;52.450;13.326;2022-08-11T03:11:30;7.43;;;2.60;;
3267;SDS011;1646;52.450;13.326;2022-08-11T03:17:02;3.13;;;2.60;;
3267;SDS011;1646;52.450;13.326;2022-08-11T03:22:07;5.63;;;3.10;;
3267;SDS011;1646;52.450;13.326;2022-08-11T03:27:10;3.47;;;2.50;;
3267;SDS011;1646;52.450;13.326;2022-08-11T03:32:23;3.00;;;2.67;;
3267;SDS011;1646;52.450;13.326;2022-08-11T03:37:29;3.93;;;3.03;;
3267;SDS011;1646;52.450;13.326;2022-08-11T03:42:48;4.17;;;2.73;;
3267;SDS011;1646;52.450;13.326;2022-08-11T03:47:59;3.53;;;2.77;;
3267;SDS011;1646;52.450;13.326;2022-08-11T03:53:09;5.10;;;3.30;;
3267;SDS011;1646;52.450;13.326;2022-08-11T04:15:23;3.03;;;2.70;;
3267;SDS011;1646;52.450;13.326;2022-08-11T04:21:19;8.90;;;2.87;;
3267;SDS011;1646;52.450;13.326;2022-08-11T04:32:15;5.67;;;3.10;;
3267;SDS011;1646;52.450;13.326;2022-08-11T04:37:46;12.40;;;3.40;;
3267;SDS011;1646;52.450;13.326;2022-08-11T04:49:04;6.63;;;3.43;;
3267;SDS011;1646;52.450;13.326;2022-08-11T04:54:39;5.93;;;4.07;;
3267;SDS011;1646;52.450;13.326;2022-08-11T05:00:15;12.27;;;3.93;;
3267;SDS011;1646;52.450;13.326;2022-08-11T05:05:35;4.77;;;3.33;;
3267;SDS011;1646;52.450;13.326;2022-08-11T05:11:01;7.47;;;3.57;;
3267;SDS011;1646;52.450;13.326;2022-08-11T05:16:08;4.73;;;3.43;;
3267;SDS011;1646;52.450;13.326;2022-08-11T05:21:31;8.43;;;4.10;;
3267;SDS011;1646;52.450;13.326;2022-08-11T05:26:53;8.23;;;4.00;;
3267;SDS011;1646;52.450;13.326;2022-08-11T05:32:11;8.83;;;4.03;;
3267;SDS011;1646;52.450;13.326;2022-08-11T05:37:32;6.13;;;4.20;;
3267;SDS011;1646;52.450;13.326;2022-08-11T05:42:38;6.03;;;4.43;;
3267;SDS011;1646;52.450;13.326;2022-08-11T05:47:58;6.17;;;3.80;;
3267;SDS011;1646;52.450;13.326;2022-08-11T05:53:14;9.30;;;4.33;;
3267;SDS011;1646;52.450;13.326;2022-08-11T05:58:45;6.83;;;4.67;;
3267;SDS011;1646;52.450;13.326;2022-08-11T06:03:47;13.53;;;4.77;;
3267;SDS011;1646;52.450;13.326;2022-08-11T06:09:04;10.30;;;5.37;;
3267;SDS011;1646;52.450;13.326;2022-08-11T06:14:05;7.67;;;4.40;;
3267;SDS011;1646;52.450;13.326;2022-08-11T06:19:05;10.40;;;5.20;;
3267;SDS011;1646;52.450;13.326;2022-08-11T06:24:09;8.63;;;5.50;;
3267;SDS011;1646;52.450;13.326;2022-08-11T06:29:10;13.13;;;5.40;;
3267;SDS011;1646;52.450;13.326;2022-08-11T06:34:14;10.80;;;5.03;;
3267;SDS011;1646;52.450;13.326;2022-08-11T06:39:26;4.90;;;4.50;;
3267;SDS011;1646;52.450;13.326;2022-08-11T06:44:32;7.70;;;5.03;;
3267;SDS011;1646;52.450;13.326;2022-08-11T06:49:38;11.00;;;5.33;;
3267;SDS011;1646;52.450;13.326;2022-08-11T06:54:59;10.27;;;4.83;;
3267;SDS011;1646;52.450;13.326;2022-08-11T07:00:04;11.87;;;4.60;;
3267;SDS011;1646;52.450;13.326;2022-08-11T07:05:21;6.80;;;4.50;;
3267;SDS011;1646;52.450;13.326;2022-08-11T07:10:32;11.70;;;4.83;;
3267;SDS011;1646;52.450;13.326;2022-08-11T07:16:02;7.37;;;3.63;;
3267;SDS011;1646;52.450;13.326;2022-08-11T07:21:10;5.37;;;4.10;;
3267;SDS011;1646;52.450;13.326;2022-08-11T07:26:49;8.53;;;3.70;;
3267;SDS011;1646;52.450;13.326;2022-08-11T07:32:15;7.70;;;3.73;;
3267;SDS011;1646;52.450;13.326;2022-08-11T07:37:18;9.03;;;4.27;;
3267;SDS011;1646;52.450;13.326;2022-08-11T07:42:20;6.00;;;4.47;;
3267;SDS011;1646;52.450;13.326;2022-08-11T07:47:24;6.17;;;3.87;;
3267;SDS011;1646;52.450;13.326;2022-08-11T07:52:41;9.67;;;3.87;;
3267;SDS011;1646;52.450;13.326;2022-08-11T07:57:39;6.70;;;3.70;;
3267;SDS011;1646;52.450;13.326;2022-08-11T08:03:16;4.70;;;3.70;;
3267;SDS011;1646;52.450;13.326;2022-08-11T08:08:32;3.70;;;3.40;;
3267;SDS011;1646;52.450;13.326;2022-08-11T08:13:50;5.23;;;2.90;;
3267;SDS011;1646;52.450;13.326;2022-08-11T08:19:10;4.80;;;3.53;;
3267;SDS011;1646;52.450;13.326;2022-08-11T08:24:09;11.47;;;4.60;;
3267;SDS011;1646;52.450;13.326;2022-08-11T08:29:08;7.93;;;3.17;;
3267;SDS011;1646;52.450;13.326;2022-08-11T08:34:25;4.20;;;2.90;;
3267;SDS011;1646;52.450;13.326;2022-08-11T08:39:27;3.63;;;3.27;;
3267;SDS011;1646;52.450;13.326;2022-08-11T08:44:29;4.17;;;2.90;;
3267;SDS011;1646;52.450;13.326;2022-08-11T08:49:38;2.97;;;2.73;;
3267;SDS011;1646;52.450;13.326;2022-08-11T08:54:44;3.87;;;2.80;;
3267;SDS011;1646;52.450;13.326;2022-08-11T08:59:46;3.40;;;3.10;;
3267;SDS011;1646;52.450;13.326;2022-08-11T09:04:48;3.27;;;2.97;;
3267;SDS011;1646;52.450;13.326;2022-08-11T09:09:47;4.90;;;2.60;;
3267;SDS011;1646;52.450;13.326;2022-08-11T09:14:47;3.93;;;2.70;;
3267;SDS011;1646;52.450;13.326;2022-08-11T09:20:02;5.70;;;3.50;;
3267;SDS011;1646;52.450;13.326;2022-08-11T09:25:02;3.07;;;2.87;;
3267;SDS011;1646;52.450;13.326;2022-08-11T09:30:15;10.43;;;2.90;;
3267;SDS011;1646;52.450;13.326;2022-08-11T09:35:14;4.83;;;2.90;;
3267;SDS011;1646;52.450;13.326;2022-08-11T09:40:13;8.10;;;2.50;;
3267;SDS011;1646;52.450;13.326;2022-08-11T09:45:28;3.93;;;2.83;;
3267;SDS011;1646;52.450;13.326;2022-08-11T09:50:37;3.27;;;2.50;;
3267;SDS011;1646;52.450;13.326;2022-08-11T09:55:36;4.90;;;2.40;;
3267;SDS011;1646;52.450;13.326;2022-08-11T10:00:35;5.23;;;2.47;;
3267;SDS011;1646;52.450;13.326;2022-08-11T10:05:37;4.53;;;2.60;;
3267;SDS011;1646;52.450;13.326;2022-08-11T10:10:53;5.00;;;2.77;;
3267;SDS011;1646;52.450;13.326;2022-08-11T10:15:53;5.80;;;2.30;;
3267;SDS011;1646;52.450;13.326;2022-08-11T10:21:14;4.23;;;2.83;;
3267;SDS011;1646;52.450;13.326;2022-08-11T10:26:23;2.93;;;2.10;;
3267;SDS011;1646;52.450;13.326;2022-08-11T10:31:42;2.50;;;2.30;;
3267;SDS011;1646;52.450;13.326;2022-08-11T10:37:02;4.10;;;2.00;;
3267;SDS011;1646;52.450;13.326;2022-08-11T10:42:10;2.63;;;2.20;;
3267;SDS011;1646;52.450;13.326;2022-08-11T10:47:46;4.33;;;2.30;;
3267;SDS011;1646;52.450;13.326;2022-08-11T10:52:47;2.50;;;2.20;;
3267;SDS011;1646;52.450;13.326;2022-08-11T10:58:04;3.80;;;2.53;;
3267;SDS011;1646;52.450;13.326;2022-08-11T11:03:20;2.90;;;2.10;;
3267;SDS011;1646;52.450;13.326;2022-08-11T11:08:21;3.27;;;2.30;;
3267;SDS011;1646;52.450;13.326;2022-08-11T11:13:48;3.33;;;2.00;;
3267;SDS011;1646;52.450;13.326;2022-08-11T11:19:06;3.97;;;2.10;;
3267;SDS011;1646;52.450;13.326;2022-08-11T11:24:11;4.40;;;2.33;;
3267;SDS011;1646;52.450;13.326;2022-08-11T11:29:32;2.90;;;2.20;;
3267;SDS011;1646;52.450;13.326;2022-08-11T11:34:51;3.13;;;2.17;;
3267;SDS011;1646;52.450;13.326;2022-08-11T11:40:09;5.00;;;2.27;;
3267;SDS011;1646;52.450;13.326;2022-08-11T11:45:08;3.17;;;2.37;;
3267;SDS011;1646;52.450;13.326;2022-08-11T11:50:23;6.50;;;2.30;;
3267;SDS011;1646;52.450;13.326;2022-08-11T11:55:29;3.93;;;2.60;;
3267;SDS011;1646;52.450;13.326;2022-08-11T12:00:29;3.03;;;2.30;;
3267;SDS011;1646;52.450;13.326;2022-08-11T12:05:45;2.90;;;2.37;;
3267;SDS011;1646;52.450;13.326;2022-08-11T12:10:46;4.43;;;2.70;;
3267;SDS011;1646;52.450;13.326;2022-08-11T12:16:10;5.30;;;2.60;;
3267;SDS011;1646;52.450;13.326;2022-08-11T12:21:29;7.03;;;2.50;;
3267;SDS011;1646;52.450;13.326;2022-08-11T12:26:30;2.47;;;2.27;;
3267;SDS011;1646;52.450;13.326;2022-08-11T12:32:09;2.80;;;2.60;;
3267;SDS011;1646;52.450;13.326;2022-08-11T12:37:07;3.40;;;2.63;;
3267;SDS011;1646;52.450;13.326;2022-08-11T12:42:10;3.43;;;2.70;;
3267;SDS011;1646;52.450;13.326;2022-08-11T12:47:29;6.17;;;2.33;;
3267;SDS011;1646;52.450;13.326;2022-08-11T12:53:09;3.17;;;2.47;;
3267;SDS011;1646;52.450;13.326;2022-08-11T12:58:10;2.60;;;2.40;;
3267;SDS011;1646;52.450;13.326;2022-08-11T13:03:12;6.70;;;2.30;;
3267;SDS011;1646;52.450;13.326;2022-08-11T13:08:30;5.07;;;2.70;;
3267;SDS011;1646;52.450;13.326;2022-08-11T13:13:33;4.40;;;2.03;;
3267;SDS011;1646;52.450;13.326;2022-08-11T13:18:51;4.90;;;2.73;;
3267;SDS011;1646;52.450;13.326;2022-08-11T13:23:50;3.93;;;2.27;;
3267;SDS011;1646;52.450;13.326;2022-08-11T13:28:59;6.40;;;2.23;;
3267;SDS011;1646;52.450;13.326;2022-08-11T13:33:57;5.00;;;2.03;;
3267;SDS011;1646;52.450;13.326;2022-08-11T13:38:59;4.70;;;2.10;;
3267;SDS011;1646;52.450;13.326;2022-08-11T13:44:00;6.40;;;2.00;;
3267;SDS011;1646;52.450;13.326;2022-08-11T13:48:59;5.63;;;2.00;;
3267;SDS011;1646;52.450;13.326;2022-08-11T13:53:59;9.60;;;2.37;;
3267;SDS011;1646;52.450;13.326;2022-08-11T13:59:01;2.00;;;1.90;;
3267;SDS011;1646;52.450;13.326;2022-08-11T14:04:02;2.70;;;2.40;;
3267;SDS011;1646;52.450;13.326;2022-08-11T14:09:25;3.30;;;2.50;;
3267;SDS011;1646;52.450;13.326;2022-08-11T14:14:30;4.30;;;1.67;;
3267;SDS011;1646;52.450;13.326;2022-08-11T14:19:30;5.23;;;2.30;;
3267;SDS011;1646;52.450;13.326;2022-08-11T14:24:32;4.80;;;1.43;;
3267;SDS011;1646;52.450;13.326;2022-08-11T14:29:33;7.90;;;2.00;;
3267;SDS011;1646;52.450;13.326;2022-08-11T14:34:44;7.03;;;1.83;;
3267;SDS011;1646;52.450;13.326;2022-08-11T14:39:43;3.90;;;1.93;;
3267;SDS011;1646;52.450;13.326;2022-08-11T14:44:45;1.90;;;1.80;;
3267;SDS011;1646;52.450;13.326;2022-08-11T14:50:03;1.73;;;1.53;;
3267;SDS011;1646;52.450;13.326;2022-08-11T14:55:07;7.03;;;1.80;;
3267;SDS011;1646;52.450;13.326;2022-08-11T15:00:26;2.23;;;1.83;;
3267;SDS011;1646;52.450;13.326;2022-08-11T15:05:24;4.40;;;1.70;;
3267;SDS011;1646;52.450;13.326;2022-08-11T15:10:23;1.83;;;1.73;;
3267;SDS011;1646;52.450;13.326;2022-08-11T15:15:21;2.57;;;1.50;;
3267;SDS011;1646;52.450;13.326;2022-08-11T15:20:40;5.23;;;1.90;;
3267;SDS011;1646;52.450;13.326;2022-08-11T15:25:57;2.40;;;1.43;;
3267;SDS011;1646;52.450;13.326;2022-08-11T15:30:56;2.80;;;1.37;;
3267;SDS011;1646;52.450;13.326;2022-08-11T15:36:15;8.13;;;1.83;;
3267;SDS011;1646;52.450;13.326;2022-08-11T15:41:34;2.50;;;1.53;;
3267;SDS011;1646;52.450;13.326;2022-08-11T15:46:54;4.27;;;1.37;;
3267;SDS011;1646;52.450;13.326;2022-08-11T15:51:59;3.23;;;1.50;;
3267;SDS011;1646;52.450;13.326;2022-08-11T15:57:00;2.07;;;1.53;;
3267;SDS011;1646;52.450;13.326;2022-08-11T16:02:00;5.10;;;1.50;;
3267;SDS011;1646;52.450;13.326;2022-08-11T16:07:20;2.43;;;1.37;;
3267;SDS011;1646;52.450;13.326;2022-08-11T16:12:24;4.40;;;1.20;;
3267;SDS011;1646;52.450;13.326;2022-08-11T16:17:25;4.97;;;2.43;;
3267;SDS011;1646;52.450;13.326;2022-08-11T16:22:28;1.90;;;1.20;;
3267;SDS011;1646;52.450;13.326;2022-08-11T16:27:37;5.33;;;4.30;;
3267;SDS011;1646;52.450;13.326;2022-08-11T16:32:39;4.93;;;2.70;;
3267;SDS011;1646;52.450;13.326;2022-08-11T16:37:41;2.13;;;1.13;;
3267;SDS011;1646;52.450;13.326;2022-08-11T16:42:58;1.67;;;1.57;;
3267;SDS011;1646;52.450;13.326;2022-08-11T16:48:14;5.97;;;1.47;;
3267;SDS011;1646;52.450;13.326;2022-08-11T16:53:34;5.20;;;1.80;;
3267;SDS011;1646;52.450;13.326;2022-08-11T16:58:55;3.73;;;1.23;;
3267;SDS011;1646;52.450;13.326;2022-08-11T17:04:15;2.87;;;1.30;;
3267;SDS011;1646;52.450;13.326;2022-08-11T17:09:36;3.07;;;1.70;;
3267;SDS011;1646;52.450;13.326;2022-08-11T17:14:53;2.17;;;1.50;;
3267;SDS011;1646;52.450;13.326;2022-08-11T17:19:54;3.13;;;1.60;;
3267;SDS011;1646;52.450;13.326;2022-08-11T17:25:18;2.70;;;1.50;;
3267;SDS011;1646;52.450;13.326;2022-08-11T17:30:16;1.93;;;1.13;;
3267;SDS011;1646;52.450;13.326;2022-08-11T17:35:17;2.13;;;1.10;;
3267;SDS011;1646;52.450;13.326;2022-08-11T17:40:28;8.50;;;1.40;;
3267;SDS011;1646;52.450;13.326;2022-08-11T17:45:28;1.93;;;1.77;;
3267;SDS011;1646;52.450;13.326;2022-08-11T17:50:51;4.80;;;1.30;;
3267;SDS011;1646;52.450;13.326;2022-08-11T17:55:52;2.83;;;1.67;;
3267;SDS011;1646;52.450;13.326;2022-08-11T18:01:10;5.43;;;1.67;;
3267;SDS011;1646;52.450;13.326;2022-08-11T18:06:09;2.27;;;1.50;;
3267;SDS011;1646;52.450;13.326;2022-08-11T18:11:10;3.47;;;2.10;;
3267;SDS011;1646;52.450;13.326;2022-08-11T18:16:47;7.00;;;1.60;;
3267;SDS011;1646;52.450;13.326;2022-08-11T18:22:04;2.90;;;1.67;;
3267;SDS011;1646;52.450;13.326;2022-08-11T18:27:24;3.83;;;1.70;;
3267;SDS011;1646;52.450;13.326;2022-08-11T18:32:44;3.03;;;1.93;;
3267;SDS011;1646;52.450;13.326;2022-08-11T18:38:22;3.00;;;1.60;;
3267;SDS011;1646;52.450;13.326;2022-08-11T18:43:44;1.97;;;1.67;;
3267;SDS011;1646;52.450;13.326;2022-08-11T18:49:02;2.33;;;1.50;;
3267;SDS011;1646;52.450;13.326;2022-08-11T18:54:43;6.13;;;1.87;;
3267;SDS011;1646;52.450;13.326;2022-08-11T19:00:07;2.50;;;1.70;;
3267;SDS011;1646;52.450;13.326;2022-08-11T19:05:24;2.87;;;1.50;;
3267;SDS011;1646;52.450;13.326;2022-08-11T19:11:01;2.63;;;1.60;;
3267;SDS011;1646;52.450;13.326;2022-08-11T19:16:20;1.73;;;1.60;;
3267;SDS011;1646;52.450;13.326;2022-08-11T19:21:38;1.93;;;1.73;;
3267;SDS011;1646;52.450;13.326;2022-08-11T19:26:55;2.83;;;1.70;;
3267;SDS011;1646;52.450;13.326;2022-08-11T19:32:13;5.07;;;2.10;;
3267;SDS011;1646;52.450;13.326;2022-08-11T19:37:30;4.90;;;2.20;;
3267;SDS011;1646;52.450;13.326;2022-08-11T19:42:47;6.00;;;2.30;;
3267;SDS011;1646;52.450;13.326;2022-08-11T19:48:21;3.37;;;1.63;;
3267;SDS011;1646;52.450;13.326;2022-08-11T19:53:38;1.90;;;1.80;;
3267;SDS011;1646;52.450;13.326;2022-08-11T19:58:54;5.53;;;2.20;;
3267;SDS011;1646;52.450;13.326;2022-08-11T20:04:13;2.83;;;2.07;;
3267;SDS011;1646;52.450;13.326;2022-08-11T20:09:28;3.93;;;2.00;;
3267;SDS011;1646;52.450;13.326;2022-08-11T20:15:02;5.43;;;2.20;;
3267;SDS011;1646;52.450;13.326;2022-08-11T20:20:20;6.03;;;2.50;;
3267;SDS011;1646;52.450;13.326;2022-08-11T20:25:39;2.97;;;2.43;;
3267;SDS011;1646;52.450;13.326;2022-08-11T20:31:14;5.30;;;2.27;;
3267;SDS011;1646;52.450;13.326;2022-08-11T20:36:33;2.93;;;2.40;;
3267;SDS011;1646;52.450;13.326;2022-08-11T20:41:51;5.50;;;2.63;;
3267;SDS011;1646;52.450;13.326;2022-08-11T20:47:08;9.20;;;2.47;;
3267;SDS011;1646;52.450;13.326;2022-08-11T20:52:27;3.57;;;2.33;;
3267;SDS011;1646;52.450;13.326;2022-08-11T20:57:45;7.17;;;2.93;;
3267;SDS011;1646;52.450;13.326;2022-08-11T21:03:09;9.70;;;3.00;;
3267;SDS011;1646;52.450;13.326;2022-08-11T21:08:41;7.53;;;2.87;;
3267;SDS011;1646;52.450;13.326;2022-08-11T21:13:59;3.40;;;2.60;;
3267;SDS011;1646;52.450;13.326;2022-08-11T21:19:22;5.37;;;2.50;;
3267;SDS011;1646;52.450;13.326;2022-08-11T21:25:01;4.47;;;2.30;;
3267;SDS011;1646;52.450;13.326;2022-08-11T21:30:18;3.50;;;2.73;;
3267;SDS011;1646;52.450;13.326;2022-08-11T21:35:34;3.33;;;2.17;;
3267;SDS011;1646;52.450;13.326;2022-08-11T21:40:52;3.33;;;2.10;;
3267;SDS011;1646;52.450;13.326;2022-08-11T21:46:08;3.37;;;2.00;;
3267;SDS011;1646;52.450;13.326;2022-08-11T21:51:29;2.47;;;2.37;;
3267;SDS011;1646;52.450;13.326;2022-08-11T21:56:46;4.03;;;1.93;;
3267;SDS011;1646;52.450;13.326;2022-08-11T22:02:02;4.63;;;2.27;;
3267;SDS011;1646;52.450;13.326;2022-08-11T22:07:18;5.00;;;2.30;;
3267;SDS011;1646;52.450;13.326;2022-08-11T22:12:37;3.07;;;2.07;;
3267;SDS011;1646;52.450;13.326;2022-08-11T22:17:53;2.47;;;2.27;;
3267;SDS011;1646;52.450;13.326;2022-08-11T22:23:08;3.20;;;2.37;;
3267;SDS011;1646;52.450;13.326;2022-08-11T22:28:33;2.47;;;2.20;;
3267;SDS011;1646;52.450;13.326;2022-08-11T22:33:48;3.90;;;2.23;;
3267;SDS011;1646;52.450;13.326;2022-08-11T22:39:03;4.23;;;2.20;;
3267;SDS011;1646;52.450;13.326;2022-08-11T22:44:22;2.70;;;2.30;;
3267;SDS011;1646;52.450;13.326;2022-08-11T22:49:38;3.77;;;2.33;;
3267;SDS011;1646;52.450;13.326;2022-08-11T22:54:55;8.00;;;2.50;;
3267;SDS011;1646;52.450;13.326;2022-08-11T23:00:14;5.70;;;2.40;;
3267;SDS011;1646;52.450;13.326;2022-08-11T23:05:30;6.37;;;2.63;;
3267;SDS011;1646;52.450;13.326;2022-08-11T23:10:48;4.53;;;2.33;;
3267;SDS011;1646;52.450;13.326;2022-08-11T23:16:06;3.40;;;2.33;;
3267;SDS011;1646;52.450;13.326;2022-08-11T23:21:22;3.97;;;2.70;;
3267;SDS011;1646;52.450;13.326;2022-08-11T23:26:38;4.27;;;2.20;;
3267;SDS011;1646;52.450;13.326;2022-08-11T23:31:56;3.53;;;2.40;;
3267;SDS011;1646;52.450;13.326;2022-08-11T23:37:12;3.40;;;2.57;;
3267;SDS011;1646;52.450;13.326;2022-08-11T23:42:27;4.10;;;2.20;;
3267;SDS011;1646;52.450;13.326;2022-08-11T23:47:44;7.07;;;2.70;;
3267;SDS011;1646;52.450;13.326;2022-08-11T23:53:01;3.77;;;2.97;;
3267;SDS011;1646;52.450;13.326;2022-08-11T23:58:17;2.40;;;2.20;;
